createdAt,value
2023-05-03T00:02:20.011Z,9.96
2023-05-03T00:04:48.604Z,9.65
2023-05-03T00:07:18.312Z,9.91
2023-05-03T00:09:46.063Z,9.74
2023-05-03T00:12:13.880Z,9.84
2023-05-03T00:14:41.629Z,9.32
2023-05-03T00:17:09.480Z,9.31
2023-05-03T00:19:37.563Z,9.59
2023-05-03T00:22:05.280Z,9.53
2023-05-03T00:24:34.406Z,9.40
2023-05-03T00:27:02.141Z,9.43
2023-05-03T00:29:29.868Z,9.54
2023-05-03T00:31:57.648Z,9.57
2023-05-03T00:34:25.434Z,9.45
2023-05-03T00:36:53.578Z,9.60
2023-05-03T00:39:21.740Z,9.60
2023-05-03T00:41:50.823Z,9.67
2023-05-03T00:44:18.532Z,9.61
2023-05-03T00:46:46.344Z,9.72
2023-05-03T00:49:14.173Z,8.99
2023-05-03T00:51:43.718Z,9.31
2023-05-03T00:54:12.336Z,9.13
2023-05-03T00:56:51.154Z,9.23
2023-05-03T00:59:21.526Z,9.35
2023-05-03T01:01:50.969Z,8.99
2023-05-03T01:04:19.339Z,9.05
2023-05-03T01:06:56.735Z,8.93
2023-05-03T01:09:34.097Z,9.20
2023-05-03T01:12:12.983Z,9.10
2023-05-03T01:14:52.082Z,9.36
2023-05-03T01:17:29.065Z,9.46
2023-05-03T01:20:02.458Z,9.62
2023-05-03T01:22:38.438Z,9.34
2023-05-03T01:25:10.436Z,9.37
2023-05-03T01:27:45.066Z,9.38
2023-05-03T01:30:14.023Z,9.66
2023-05-03T01:32:52.324Z,9.42
2023-05-03T01:35:27.592Z,9.64
2023-05-03T01:37:57.033Z,9.32
2023-05-03T01:40:28.735Z,9.45
2023-05-03T01:42:57.829Z,9.36
2023-05-03T01:45:26.710Z,9.50
2023-05-03T01:47:54.472Z,9.30
2023-05-03T01:50:22.284Z,9.09
2023-05-03T01:52:52.443Z,9.27
2023-05-03T01:55:20.226Z,9.17
2023-05-03T01:57:49.322Z,9.14
2023-05-03T02:00:17.290Z,9.24
2023-05-03T02:02:45.036Z,9.24
2023-05-03T02:05:13.625Z,8.91
2023-05-03T02:07:41.421Z,9.25
2023-05-03T02:10:14.402Z,8.84
2023-05-03T02:12:42.507Z,9.14
2023-05-03T02:15:13.917Z,9.18
2023-05-03T02:17:43.963Z,9.20
2023-05-03T02:20:12.524Z,9.29
2023-05-03T02:22:40.431Z,9.33
2023-05-03T02:25:08.767Z,9.13
2023-05-03T02:27:36.546Z,9.21
2023-05-03T02:30:05.246Z,9.16
2023-05-03T02:32:34.746Z,9.23
2023-05-03T02:35:03.128Z,9.20
2023-05-03T02:37:30.945Z,9.48
2023-05-03T02:39:58.721Z,9.64
2023-05-03T02:42:26.432Z,9.47
2023-05-03T02:44:54.157Z,9.48
2023-05-03T02:47:22.004Z,9.52
2023-05-03T02:49:51.344Z,9.51
2023-05-03T02:52:19.068Z,9.22
2023-05-03T02:54:49.484Z,9.36
2023-05-03T02:57:17.287Z,9.22
2023-05-03T02:59:45.258Z,9.41
2023-05-03T03:02:13.014Z,9.28
2023-05-03T03:04:40.724Z,9.41
2023-05-03T03:07:09.808Z,9.38
2023-05-03T03:09:37.537Z,9.47
2023-05-03T03:12:06.864Z,9.24
2023-05-03T03:14:34.614Z,9.51
2023-05-03T03:17:02.865Z,9.49
2023-05-03T03:19:30.767Z,9.77
2023-05-03T03:21:58.497Z,9.95
2023-05-03T03:24:27.798Z,9.73
2023-05-03T03:26:55.524Z,9.69
2023-05-03T03:29:23.246Z,9.83
2023-05-03T03:31:50.996Z,9.84
2023-05-03T03:34:18.858Z,9.81
2023-05-03T03:36:46.580Z,9.92
2023-05-03T03:39:14.299Z,9.99
2023-05-03T03:41:43.505Z,9.47
2023-05-03T03:44:11.296Z,9.13
2023-05-03T03:46:39.092Z,9.65
2023-05-03T03:49:08.128Z,9.42
2023-05-03T03:51:36.046Z,9.38
2023-05-03T03:54:03.802Z,9.52
2023-05-03T03:56:31.659Z,9.73
2023-05-03T03:59:00.812Z,9.60
2023-05-03T04:01:28.574Z,9.38
2023-05-03T04:03:56.407Z,9.46
2023-05-03T04:06:24.481Z,9.35
2023-05-03T04:08:52.227Z,9.42
2023-05-03T04:11:21.528Z,9.47
2023-05-03T04:13:49.441Z,9.51
2023-05-03T04:16:18.978Z,9.74
2023-05-03T04:18:46.944Z,9.68
2023-05-03T04:21:14.682Z,9.84
2023-05-03T04:23:42.610Z,9.81
2023-05-03T04:26:23.571Z,9.81
2023-05-03T04:28:58.226Z,9.60
2023-05-03T04:31:28.388Z,9.56
2023-05-03T04:33:56.726Z,9.89
2023-05-03T04:36:25.919Z,10.23
2023-05-03T04:38:53.783Z,9.80
2023-05-03T04:41:21.512Z,10.00
2023-05-03T04:43:49.279Z,10.08
2023-05-03T04:46:18.566Z,10.16
2023-05-03T04:48:47.759Z,9.79
2023-05-03T04:51:15.555Z,10.24
2023-05-03T04:53:43.282Z,10.16
2023-05-03T04:56:11.026Z,9.74
2023-05-03T04:58:38.814Z,10.26
2023-05-03T05:01:07.330Z,10.06
2023-05-03T05:03:35.267Z,10.55
2023-05-03T05:06:04.614Z,10.56
2023-05-03T05:08:32.371Z,10.43
2023-05-03T05:11:00.205Z,10.46
2023-05-03T05:13:28.040Z,10.50
2023-05-03T05:15:55.769Z,10.47
2023-05-03T05:18:23.534Z,10.63
2023-05-03T05:20:51.279Z,10.38
2023-05-03T05:23:20.469Z,9.95
2023-05-03T05:25:48.404Z,10.13
2023-05-03T05:28:16.260Z,10.70
2023-05-03T05:30:43.956Z,10.17
2023-05-03T05:33:11.735Z,10.11
2023-05-03T05:35:39.520Z,10.54
2023-05-03T05:38:07.447Z,10.40
2023-05-03T05:40:36.549Z,10.61
2023-05-03T05:43:04.311Z,10.86
2023-05-03T05:45:32.105Z,10.55
2023-05-03T05:47:59.852Z,10.11
2023-05-03T05:50:27.747Z,10.22
2023-05-03T05:52:55.497Z,10.22
2023-05-03T05:55:23.187Z,10.50
2023-05-03T05:57:52.284Z,10.39
2023-05-03T06:00:21.555Z,10.82
2023-05-03T06:02:50.017Z,10.94
2023-05-03T06:05:18.031Z,10.55
2023-05-03T06:07:45.781Z,11.30
2023-05-03T06:10:13.643Z,10.55
2023-05-03T06:12:41.445Z,11.02
2023-05-03T06:15:11.130Z,11.15
2023-05-03T06:17:38.986Z,11.47
2023-05-03T06:20:11.695Z,10.85
2023-05-03T06:22:39.435Z,11.50
2023-05-03T06:25:08.125Z,10.99
2023-05-03T06:27:36.617Z,10.92
2023-05-03T06:30:05.641Z,10.88
2023-05-03T06:32:34.984Z,11.27
2023-05-03T06:35:03.580Z,10.99
2023-05-03T06:37:31.287Z,11.51
2023-05-03T06:39:59.011Z,11.16
2023-05-03T06:42:27.702Z,11.33
2023-05-03T06:44:55.416Z,11.41
2023-05-03T06:47:23.129Z,11.21
2023-05-03T06:49:52.467Z,11.43
2023-05-03T06:52:20.172Z,12.19
2023-05-03T06:54:47.896Z,11.35
2023-05-03T06:57:15.664Z,11.35
2023-05-03T06:59:43.452Z,11.65
2023-05-03T07:02:11.324Z,11.41
2023-05-03T07:04:39.785Z,11.32
2023-05-03T07:07:09.000Z,11.26
2023-05-03T07:12:09.718Z,11.86
2023-05-03T07:14:37.489Z,11.80
2023-05-03T07:17:05.261Z,11.51
2023-05-03T07:19:33.018Z,11.52
2023-05-03T07:22:02.795Z,11.56
2023-05-03T07:24:31.871Z,11.58
2023-05-03T07:26:59.818Z,12.03
2023-05-03T07:29:28.648Z,11.88
2023-05-03T07:31:56.434Z,11.56
2023-05-03T07:34:24.154Z,12.02
2023-05-03T07:36:52.034Z,12.10
2023-05-03T07:39:19.855Z,12.02
2023-05-03T07:41:49.146Z,12.16
2023-05-03T07:44:16.925Z,12.21
2023-05-03T07:46:44.655Z,11.74
2023-05-03T07:49:12.388Z,11.65
2023-05-03T07:51:41.140Z,11.93
2023-05-03T07:54:09.129Z,11.75
2023-05-03T07:56:36.855Z,12.33
2023-05-03T07:59:10.120Z,12.55
2023-05-03T08:01:38.485Z,12.43
2023-05-03T08:04:06.913Z,12.69
2023-05-03T08:06:36.501Z,12.27
2023-05-03T08:09:04.849Z,12.13
2023-05-03T08:11:32.772Z,12.72
2023-05-03T08:14:00.526Z,12.41
2023-05-03T08:16:29.837Z,12.76
2023-05-03T08:18:57.654Z,13.02
2023-05-03T08:21:26.172Z,12.89
2023-05-03T08:23:54.647Z,12.47
2023-05-03T08:26:24.230Z,12.66
2023-05-03T08:28:52.129Z,12.34
2023-05-03T08:31:19.969Z,13.07
2023-05-03T08:33:49.113Z,13.17
2023-05-03T08:36:16.906Z,12.94
2023-05-03T08:38:44.579Z,12.99
2023-05-03T08:41:20.098Z,13.33
2023-05-03T08:43:53.477Z,13.07
2023-05-03T08:46:21.537Z,13.07
2023-05-03T08:48:52.688Z,12.94
2023-05-03T08:51:21.536Z,13.98
2023-05-03T08:53:49.491Z,13.56
2023-05-03T08:56:25.134Z,13.93
2023-05-03T08:58:53.317Z,13.39
2023-05-03T09:01:21.138Z,14.18
2023-05-03T09:03:53.517Z,13.73
2023-05-03T09:06:23.154Z,13.82
2023-05-03T09:08:50.910Z,13.21
2023-05-03T09:11:22.753Z,13.55
2023-05-03T09:13:51.548Z,14.02
2023-05-03T09:16:24.306Z,13.69
2023-05-03T09:19:00.899Z,14.24
2023-05-03T09:21:28.796Z,13.60
2023-05-03T09:23:56.592Z,13.74
2023-05-03T09:26:31.483Z,14.03
2023-05-03T09:29:00.747Z,14.36
2023-05-03T09:31:29.543Z,14.32
2023-05-03T09:33:57.793Z,13.94
2023-05-03T09:36:27.643Z,13.54
2023-05-03T09:38:56.417Z,14.40
2023-05-03T09:41:31.614Z,13.80
2023-05-03T09:44:02.979Z,14.43
2023-05-03T09:46:32.058Z,14.69
2023-05-03T09:49:01.167Z,14.68
2023-05-03T09:51:31.949Z,15.13
2023-05-03T09:54:00.621Z,14.69
2023-05-03T09:56:28.376Z,16.00
2023-05-03T09:58:56.100Z,15.15
2023-05-03T10:01:25.919Z,16.44
2023-05-03T10:03:58.023Z,15.83
2023-05-03T10:06:27.990Z,16.35
2023-05-03T10:09:06.202Z,15.69
2023-05-03T10:11:36.279Z,16.57
2023-05-03T10:14:06.605Z,17.48
2023-05-03T10:16:38.525Z,17.67
2023-05-03T10:19:12.886Z,17.63
2023-05-03T10:21:55.186Z,16.75
2023-05-03T10:24:24.374Z,16.70
2023-05-03T10:26:53.132Z,18.42
2023-05-03T10:29:49.786Z,16.16
2023-05-03T10:32:34.616Z,18.23
2023-05-03T10:35:05.635Z,18.85
2023-05-03T10:37:36.069Z,18.30
2023-05-03T10:40:11.421Z,18.32
2023-05-03T10:42:46.281Z,18.71
2023-05-03T10:45:25.152Z,19.09
2023-05-03T10:48:20.700Z,18.15
2023-05-03T10:50:51.779Z,17.14
2023-05-03T10:53:40.043Z,18.75
2023-05-03T10:56:10.804Z,18.68
2023-05-03T10:58:39.910Z,18.95
2023-05-03T11:01:10.222Z,17.69
2023-05-03T11:03:54.878Z,17.80
2023-05-03T11:06:31.421Z,18.65
2023-05-03T11:08:59.357Z,17.66
2023-05-03T11:11:28.654Z,18.42
2023-05-03T11:13:56.489Z,18.60
2023-05-03T11:16:24.741Z,18.34
2023-05-03T11:18:53.225Z,17.80
2023-05-03T11:21:22.042Z,17.72
2023-05-03T11:23:49.917Z,18.68
2023-05-03T11:26:18.832Z,19.05
2023-05-03T11:28:47.893Z,18.90
2023-05-03T11:31:15.752Z,17.81
2023-05-03T11:33:43.924Z,18.88
2023-05-03T11:36:13.717Z,19.07
2023-05-03T11:38:41.427Z,18.86
2023-05-03T11:41:15.455Z,17.44
2023-05-03T11:43:43.800Z,17.71
2023-05-03T11:46:14.375Z,18.41
2023-05-03T11:48:45.005Z,19.94
2023-05-03T11:51:13.863Z,19.39
2023-05-03T11:53:42.881Z,17.68
2023-05-03T11:56:14.091Z,19.32
2023-05-03T11:58:52.092Z,19.28
2023-05-03T12:01:22.762Z,18.56
2023-05-03T12:03:54.748Z,18.44
2023-05-03T12:06:24.100Z,19.18
2023-05-03T12:08:52.436Z,19.53
2023-05-03T12:11:21.856Z,18.27
2023-05-03T12:13:58.391Z,19.05
2023-05-03T12:16:28.413Z,18.86
2023-05-03T12:19:03.098Z,18.02
2023-05-03T12:21:54.080Z,19.10
2023-05-03T12:24:28.709Z,18.63
2023-05-03T12:26:57.813Z,19.88
2023-05-03T12:29:26.216Z,19.51
2023-05-03T12:31:59.077Z,18.99
2023-05-03T12:37:04.451Z,18.73
2023-05-03T12:39:33.728Z,20.00
2023-05-03T12:44:35.330Z,18.41
2023-05-03T12:47:06.526Z,19.72
2023-05-03T12:49:39.022Z,18.92
2023-05-03T12:52:34.757Z,19.50
2023-05-03T12:54:56.194Z,18.62
2023-05-03T12:57:24.754Z,20.15
2023-05-03T13:00:01.598Z,18.94
2023-05-03T13:05:11.319Z,20.26
2023-05-03T13:07:43.931Z,18.25
2023-05-03T13:12:46.721Z,19.00
2023-05-03T13:15:14.658Z,20.17
2023-05-03T13:17:46.724Z,20.53
2023-05-03T13:20:15.118Z,18.96
2023-05-03T13:22:42.845Z,19.57
2023-05-03T13:25:10.797Z,19.77
2023-05-03T13:27:38.509Z,18.09
2023-05-03T13:30:07.591Z,17.81
2023-05-03T13:32:35.331Z,19.07
2023-05-03T13:35:05.324Z,18.57
2023-05-03T13:37:33.453Z,19.18
2023-05-03T13:40:01.455Z,18.29
2023-05-03T13:42:29.507Z,19.37
2023-05-03T13:44:57.264Z,18.33
2023-05-03T13:47:26.983Z,18.16
2023-05-03T13:49:57.360Z,17.69
2023-05-03T13:52:26.452Z,18.90
2023-05-03T13:54:54.504Z,18.13
2023-05-03T13:57:23.075Z,19.29
2023-05-03T13:59:51.734Z,19.81
2023-05-03T14:02:19.492Z,17.92
2023-05-03T14:04:47.668Z,18.76
2023-05-03T14:07:15.372Z,19.42
2023-05-03T14:09:44.519Z,18.75
2023-05-03T14:12:12.301Z,18.10
2023-05-03T14:14:39.987Z,19.36
2023-05-03T14:17:08.297Z,20.23
2023-05-03T14:19:37.010Z,18.61
2023-05-03T14:22:04.842Z,19.81
2023-05-03T14:24:32.596Z,19.08
2023-05-03T14:27:01.836Z,18.16
2023-05-03T14:29:29.645Z,18.27
2023-05-03T14:31:57.629Z,16.98
2023-05-03T14:34:25.370Z,17.67
2023-05-03T14:36:53.237Z,19.01
2023-05-03T14:39:21.003Z,17.89
2023-05-03T14:41:51.046Z,18.85
2023-05-03T14:44:20.613Z,20.05
2023-05-03T14:46:48.346Z,19.72
2023-05-03T14:49:17.572Z,19.21
2023-05-03T14:51:45.474Z,19.49
2023-05-03T14:54:13.221Z,19.76
2023-05-03T14:56:40.978Z,19.55
2023-05-03T14:59:09.132Z,18.22
2023-05-03T15:01:38.415Z,18.41
2023-05-03T15:04:07.679Z,18.47
2023-05-03T15:06:38.985Z,19.64
2023-05-03T15:09:08.611Z,17.91
2023-05-03T15:11:36.381Z,17.69
2023-05-03T15:14:04.082Z,16.20
2023-05-03T15:16:31.917Z,16.31
2023-05-03T15:19:01.596Z,17.84
2023-05-03T15:21:29.503Z,17.34
2023-05-03T15:23:58.063Z,16.57
2023-05-03T15:26:25.804Z,17.49
2023-05-03T15:28:53.533Z,17.92
2023-05-03T15:31:21.771Z,17.17
2023-05-03T15:33:49.675Z,15.97
2023-05-03T15:36:18.746Z,18.18
2023-05-03T15:38:46.768Z,18.21
2023-05-03T15:41:14.544Z,18.52
2023-05-03T15:43:42.626Z,18.78
2023-05-03T15:46:10.523Z,18.05
2023-05-03T15:48:38.317Z,18.34
2023-05-03T15:51:06.220Z,18.73
2023-05-03T15:53:35.363Z,17.73
2023-05-03T15:56:03.996Z,19.44
2023-05-03T15:58:31.925Z,18.92
2023-05-03T16:01:00.240Z,17.91
2023-05-03T16:03:28.732Z,17.53
2023-05-03T16:05:56.688Z,17.49
2023-05-03T16:08:24.497Z,17.96
2023-05-03T16:10:53.809Z,18.99
2023-05-03T16:13:22.013Z,18.56
2023-05-03T16:15:52.471Z,18.26
2023-05-03T16:18:20.469Z,17.71
2023-05-03T16:20:48.205Z,18.72
2023-05-03T16:23:15.977Z,17.16
2023-05-03T16:25:43.852Z,17.93
2023-05-03T16:28:12.968Z,17.77
2023-05-03T16:30:41.077Z,17.63
2023-05-03T16:33:08.958Z,18.51
2023-05-03T16:35:36.746Z,17.56
2023-05-03T16:38:04.625Z,18.85
2023-05-03T16:40:32.768Z,17.18
2023-05-03T16:43:00.516Z,17.31
2023-05-03T16:45:29.746Z,17.88
2023-05-03T16:47:57.822Z,17.40
2023-05-03T16:50:25.883Z,17.05
2023-05-03T16:52:53.647Z,17.02
2023-05-03T16:55:23.335Z,16.98
2023-05-03T16:57:51.084Z,16.74
2023-05-03T17:00:20.885Z,17.39
2023-05-03T17:02:50.070Z,17.08
2023-05-03T17:05:19.980Z,16.58
2023-05-03T17:07:47.689Z,16.55
2023-05-03T17:10:15.721Z,16.75
2023-05-03T17:12:43.509Z,16.70
2023-05-03T17:15:12.616Z,17.02
2023-05-03T17:17:40.436Z,16.79
2023-05-03T17:20:12.842Z,16.86
2023-05-03T17:22:40.604Z,16.67
2023-05-03T17:25:09.694Z,16.68
2023-05-03T17:27:38.325Z,16.28
2023-05-03T17:30:08.549Z,16.15
2023-05-03T17:32:36.605Z,16.32
2023-05-03T17:35:04.620Z,17.29
2023-05-03T17:37:33.726Z,16.75
2023-05-03T17:40:01.566Z,16.52
2023-05-03T17:42:29.414Z,15.81
2023-05-03T17:44:57.954Z,16.29
2023-05-03T17:47:25.804Z,16.05
2023-05-03T17:49:53.941Z,15.26
2023-05-03T17:52:22.017Z,15.54
2023-05-03T17:54:52.362Z,15.47
2023-05-03T17:57:21.472Z,15.69
2023-05-03T17:59:49.217Z,15.21
2023-05-03T18:02:17.857Z,15.59
2023-05-03T18:04:45.607Z,15.29
2023-05-03T18:07:13.412Z,14.81
2023-05-03T18:09:41.159Z,14.72
2023-05-03T18:12:10.267Z,14.88
2023-05-03T18:14:38.060Z,14.73
2023-05-03T18:17:07.425Z,14.63
2023-05-03T18:19:35.157Z,14.56
2023-05-03T18:22:03.027Z,14.80
2023-05-03T18:24:30.703Z,14.84
2023-05-03T18:26:58.454Z,14.17
2023-05-03T18:29:28.279Z,14.60
2023-05-03T18:31:57.474Z,14.81
2023-05-03T18:34:26.777Z,14.27
2023-05-03T18:36:54.566Z,13.68
2023-05-03T18:39:22.887Z,13.96
2023-05-03T18:41:50.675Z,14.25
2023-05-03T18:44:18.384Z,13.33
2023-05-03T18:46:47.557Z,13.00
2023-05-03T18:49:15.275Z,13.46
2023-05-03T18:51:43.021Z,13.67
2023-05-03T18:54:10.790Z,13.93
2023-05-03T18:56:38.501Z,13.49
2023-05-03T18:59:06.386Z,13.26
2023-05-03T19:01:34.527Z,13.47
2023-05-03T19:04:04.485Z,13.68
2023-05-03T19:06:32.272Z,13.57
2023-05-03T19:09:00.018Z,13.84
2023-05-03T19:11:27.760Z,13.63
2023-05-03T19:13:55.497Z,13.57
2023-05-03T19:16:23.305Z,13.57
2023-05-03T19:18:51.248Z,13.47
2023-05-03T19:21:20.568Z,13.04
2023-05-03T19:23:48.355Z,12.87
2023-05-03T19:26:16.070Z,12.62
2023-05-03T19:28:44.233Z,12.70
2023-05-03T19:31:12.035Z,12.44
2023-05-03T19:33:39.819Z,12.48
2023-05-03T19:36:07.886Z,12.57
2023-05-03T19:38:37.031Z,12.45
2023-05-03T19:41:07.946Z,12.36
2023-05-03T19:43:35.673Z,12.51
2023-05-03T19:46:04.151Z,12.59
2023-05-03T19:48:32.182Z,12.64
2023-05-03T19:51:00.001Z,12.40
2023-05-03T19:53:27.975Z,12.59
2023-05-03T19:55:58.678Z,12.76
2023-05-03T19:58:27.282Z,12.70
2023-05-03T20:00:55.631Z,12.46
2023-05-03T20:03:24.558Z,12.26
2023-05-03T20:05:52.679Z,12.48
2023-05-03T20:08:20.478Z,12.33
2023-05-03T20:10:49.805Z,11.42
2023-05-03T20:13:19.056Z,11.96
2023-05-03T20:15:48.017Z,12.08
2023-05-03T20:18:15.913Z,12.28
2023-05-03T20:20:43.634Z,12.41
2023-05-03T20:23:11.915Z,12.43
2023-05-03T20:25:39.718Z,12.38
2023-05-03T20:28:07.974Z,12.18
2023-05-03T20:30:37.203Z,12.05
2023-05-03T20:33:05.395Z,11.84
2023-05-03T20:35:33.178Z,11.47
2023-05-03T20:38:00.967Z,11.60
2023-05-03T20:40:28.735Z,11.77
2023-05-03T20:42:56.429Z,11.98
2023-05-03T20:45:24.241Z,11.87
2023-05-03T20:47:53.434Z,11.63
2023-05-03T20:50:21.485Z,11.23
2023-05-03T20:52:49.200Z,11.21
2023-05-03T20:55:17.082Z,11.28
2023-05-03T20:57:44.854Z,11.58
2023-05-03T21:00:15.749Z,10.91
2023-05-03T21:02:44.004Z,10.93
2023-05-03T21:05:13.261Z,11.66
2023-05-03T21:07:40.992Z,11.51
2023-05-03T21:10:10.038Z,11.63
2023-05-03T21:12:37.806Z,11.14
2023-05-03T21:15:06.613Z,11.23
2023-05-03T21:17:34.388Z,11.13
2023-05-03T21:20:02.428Z,10.94
2023-05-03T21:22:32.227Z,10.78
2023-05-03T21:25:00.365Z,10.86
2023-05-03T21:27:28.137Z,11.12
2023-05-03T21:29:55.877Z,11.01
2023-05-03T21:32:23.723Z,11.14
2023-05-03T21:34:51.607Z,11.44
2023-05-03T21:37:19.352Z,11.21
2023-05-03T21:40:00.411Z,11.28
2023-05-03T21:42:29.590Z,11.25
2023-05-03T21:44:57.664Z,11.31
2023-05-03T21:47:27.592Z,10.79
2023-05-03T21:49:55.569Z,10.79
2023-05-03T21:52:23.329Z,10.73
2023-05-03T21:54:53.247Z,11.07
2023-05-03T21:57:21.078Z,10.96
2023-05-03T21:59:49.399Z,10.60
2023-05-03T22:02:17.192Z,10.54
2023-05-03T22:04:45.315Z,10.63
2023-05-03T22:07:13.199Z,10.36
2023-05-03T22:09:40.895Z,10.50
2023-05-03T22:12:22.346Z,10.59
2023-05-03T22:14:51.554Z,10.77
2023-05-03T22:17:19.383Z,10.63
2023-05-03T22:19:47.124Z,10.55
2023-05-03T22:22:14.869Z,9.51
2023-05-03T22:24:42.572Z,9.30
2023-05-03T22:27:11.702Z,9.33
2023-05-03T22:29:39.434Z,9.48
2023-05-03T22:32:07.999Z,9.65
2023-05-03T22:34:36.222Z,9.90
2023-05-03T22:37:04.211Z,9.67
2023-05-03T22:39:32.224Z,9.68
2023-05-03T22:42:00.067Z,9.30
2023-05-03T22:44:29.168Z,9.29
2023-05-03T22:46:56.949Z,9.40
2023-05-03T22:49:24.983Z,9.15
2023-05-03T22:51:52.731Z,9.79
2023-05-03T22:54:21.761Z,9.60
2023-05-03T22:56:49.555Z,9.73
2023-05-03T22:59:17.263Z,9.73
2023-05-03T23:01:49.401Z,9.94
2023-05-03T23:04:17.512Z,9.11
2023-05-03T23:06:45.503Z,9.21
2023-05-03T23:09:13.448Z,9.50
2023-05-03T23:11:41.202Z,9.83
2023-05-03T23:14:08.929Z,9.52
2023-05-03T23:16:37.066Z,9.60
2023-05-03T23:19:06.145Z,9.14
2023-05-03T23:21:33.865Z,9.07
2023-05-03T23:24:01.616Z,9.33
2023-05-03T23:26:29.716Z,9.43
2023-05-03T23:28:57.852Z,9.46
2023-05-03T23:31:25.929Z,9.43
2023-05-03T23:33:54.747Z,8.64
2023-05-03T23:36:23.855Z,8.91
2023-05-03T23:38:52.033Z,8.59
2023-05-03T23:41:19.763Z,8.49
2023-05-03T23:43:47.477Z,8.53
2023-05-03T23:46:15.319Z,8.38
2023-05-03T23:48:43.091Z,8.66
2023-05-03T23:51:10.927Z,8.46
2023-05-03T23:53:40.010Z,8.76
2023-05-03T23:56:08.209Z,8.92
2023-05-03T23:58:36.245Z,9.11
